sensor_id;sensor_type;location;lat;lon;timestamp;temperature;humidity
9193;DHT22;4631;49.296;10.560;2022-11-04T00:01:58;9.90;99.90
9193;DHT22;4631;49.296;10.560;2022-11-04T00:04:26;10.00;99.90
9193;DHT22;4631;49.296;10.560;2022-11-04T00:06:54;10.00;99.90
9193;DHT22;4631;49.296;10.560;2022-11-04T00:09:21;10.00;99.90
9193;DHT22;4631;49.296;10.560;2022-11-04T00:11:48;10.00;99.90
9193;DHT22;4631;49.296;10.560;2022-11-04T00:14:33;10.10;99.90
9193;DHT22;4631;49.296;10.560;2022-11-04T00:17:00;10.10;99.90
9193;DHT22;4631;49.296;10.560;2022-11-04T00:19:45;10.20;99.90
9193;DHT22;4631;49.296;10.560;2022-11-04T00:22:30;10.20;99.90
9193;DHT22;4631;49.296;10.560;2022-11-04T00:25:14;10.20;99.90
9193;DHT22;4631;49.296;10.560;2022-11-04T00:28:02;10.20;99.90
9193;DHT22;4631;49.296;10.560;2022-11-04T00:30:47;10.20;99.90
9193;DHT22;4631;49.296;10.560;2022-11-04T00:33:14;10.10;99.90
9193;DHT22;4631;49.296;10.560;2022-11-04T00:35:54;10.10;99.90
9193;DHT22;4631;49.296;10.560;2022-11-04T00:38:21;10.10;99.90
9193;DHT22;4631;49.296;10.560;2022-11-04T00:40:48;10.10;99.90
9193;DHT22;4631;49.296;10.560;2022-11-04T00:43:15;10.10;99.90
9193;DHT22;4631;49.296;10.560;2022-11-04T00:45:41;10.00;99.90
9193;DHT22;4631;49.296;10.560;2022-11-04T00:48:08;10.00;99.90
9193;DHT22;4631;49.296;10.560;2022-11-04T00:50:36;10.00;99.90
9193;DHT22;4631;49.296;10.560;2022-11-04T00:53:05;10.00;99.90
9193;DHT22;4631;49.296;10.560;2022-11-04T00:55:32;10.00;99.90
9193;DHT22;4631;49.296;10.560;2022-11-04T00:57:59;10.00;99.90
9193;DHT22;4631;49.296;10.560;2022-11-04T01:00:26;10.00;99.90
9193;DHT22;4631;49.296;10.560;2022-11-04T01:02:52;9.90;99.90
9193;DHT22;4631;49.296;10.560;2022-11-04T01:05:19;9.90;99.90
9193;DHT22;4631;49.296;10.560;2022-11-04T01:07:46;9.90;99.90
9193;DHT22;4631;49.296;10.560;2022-11-04T01:10:14;9.90;99.90
9193;DHT22;4631;49.296;10.560;2022-11-04T01:12:41;9.90;99.90
9193;DHT22;4631;49.296;10.560;2022-11-04T01:15:08;9.80;99.90
9193;DHT22;4631;49.296;10.560;2022-11-04T01:17:34;9.80;99.90
9193;DHT22;4631;49.296;10.560;2022-11-04T01:20:01;9.80;99.90
9193;DHT22;4631;49.296;10.560;2022-11-04T01:22:28;9.80;99.90
9193;DHT22;4631;49.296;10.560;2022-11-04T01:24:54;9.80;99.90
9193;DHT22;4631;49.296;10.560;2022-11-04T01:27:22;9.80;99.90
9193;DHT22;4631;49.296;10.560;2022-11-04T01:29:49;9.70;99.90
9193;DHT22;4631;49.296;10.560;2022-11-04T01:32:15;9.70;99.90
9193;DHT22;4631;49.296;10.560;2022-11-04T01:34:42;9.70;99.90
9193;DHT22;4631;49.296;10.560;2022-11-04T01:37:09;9.70;99.90
9193;DHT22;4631;49.296;10.560;2022-11-04T01:39:35;9.80;99.90
9193;DHT22;4631;49.296;10.560;2022-11-04T01:42:02;9.80;99.90
9193;DHT22;4631;49.296;10.560;2022-11-04T01:47:18;9.80;99.90
9193;DHT22;4631;49.296;10.560;2022-11-04T01:49:46;9.80;99.90
9193;DHT22;4631;49.296;10.560;2022-11-04T01:52:15;9.80;99.90
9193;DHT22;4631;49.296;10.560;2022-11-04T01:54:42;9.80;99.90
9193;DHT22;4631;49.296;10.560;2022-11-04T01:57:12;9.80;99.90
9193;DHT22;4631;49.296;10.560;2022-11-04T01:59:39;9.70;99.90
9193;DHT22;4631;49.296;10.560;2022-11-04T02:02:06;9.70;99.90
9193;DHT22;4631;49.296;10.560;2022-11-04T02:04:34;9.80;99.90
9193;DHT22;4631;49.296;10.560;2022-11-04T02:07:02;9.80;99.90
9193;DHT22;4631;49.296;10.560;2022-11-04T02:09:30;9.80;99.90
9193;DHT22;4631;49.296;10.560;2022-11-04T02:11:57;9.70;99.90
9193;DHT22;4631;49.296;10.560;2022-11-04T02:14:41;9.70;99.90
9193;DHT22;4631;49.296;10.560;2022-11-04T02:17:11;9.70;99.90
9193;DHT22;4631;49.296;10.560;2022-11-04T02:22:46;9.70;99.90
9193;DHT22;4631;49.296;10.560;2022-11-04T02:25:23;9.70;99.90
9193;DHT22;4631;49.296;10.560;2022-11-04T02:28:01;9.70;99.90
9193;DHT22;4631;49.296;10.560;2022-11-04T02:30:35;9.60;99.90
9193;DHT22;4631;49.296;10.560;2022-11-04T02:33:13;9.60;99.90
9193;DHT22;4631;49.296;10.560;2022-11-04T02:35:43;9.70;99.90
9193;DHT22;4631;49.296;10.560;2022-11-04T02:38:18;9.70;99.90
9193;DHT22;4631;49.296;10.560;2022-11-04T02:40:49;9.70;99.90
9193;DHT22;4631;49.296;10.560;2022-11-04T02:43:20;9.70;99.90
9193;DHT22;4631;49.296;10.560;2022-11-04T02:45:49;9.60;99.90
9193;DHT22;4631;49.296;10.560;2022-11-04T02:48:19;9.70;99.90
9193;DHT22;4631;49.296;10.560;2022-11-04T02:50:50;9.70;99.90
9193;DHT22;4631;49.296;10.560;2022-11-04T02:53:19;9.70;99.90
9193;DHT22;4631;49.296;10.560;2022-11-04T02:55:47;9.70;99.90
9193;DHT22;4631;49.296;10.560;2022-11-04T02:58:17;9.70;99.90
9193;DHT22;4631;49.296;10.560;2022-11-04T03:00:46;9.70;99.90
9193;DHT22;4631;49.296;10.560;2022-11-04T03:03:17;9.70;99.90
9193;DHT22;4631;49.296;10.560;2022-11-04T03:05:45;9.70;99.90
9193;DHT22;4631;49.296;10.560;2022-11-04T03:08:13;9.70;99.90
9193;DHT22;4631;49.296;10.560;2022-11-04T03:10:42;9.70;99.90
9193;DHT22;4631;49.296;10.560;2022-11-04T03:13:10;9.70;99.90
9193;DHT22;4631;49.296;10.560;2022-11-04T03:15:38;9.70;99.90
9193;DHT22;4631;49.296;10.560;2022-11-04T03:18:08;9.70;99.90
9193;DHT22;4631;49.296;10.560;2022-11-04T03:20:40;9.70;99.90
9193;DHT22;4631;49.296;10.560;2022-11-04T03:23:08;9.70;99.90
9193;DHT22;4631;49.296;10.560;2022-11-04T03:25:35;9.70;99.90
9193;DHT22;4631;49.296;10.560;2022-11-04T03:28:03;9.70;99.90
9193;DHT22;4631;49.296;10.560;2022-11-04T03:30:32;9.70;99.90
9193;DHT22;4631;49.296;10.560;2022-11-04T03:33:04;9.70;99.90
9193;DHT22;4631;49.296;10.560;2022-11-04T03:35:32;9.70;99.90
9193;DHT22;4631;49.296;10.560;2022-11-04T03:38:02;9.60;99.90
9193;DHT22;4631;49.296;10.560;2022-11-04T03:40:28;9.70;99.90
9193;DHT22;4631;49.296;10.560;2022-11-04T03:42:56;9.70;99.90
9193;DHT22;4631;49.296;10.560;2022-11-04T03:45:24;9.60;99.90
9193;DHT22;4631;49.296;10.560;2022-11-04T03:47:51;9.60;99.90
9193;DHT22;4631;49.296;10.560;2022-11-04T03:50:19;9.60;99.90
9193;DHT22;4631;49.296;10.560;2022-11-04T03:52:49;9.60;99.90
9193;DHT22;4631;49.296;10.560;2022-11-04T03:55:17;9.50;99.90
9193;DHT22;4631;49.296;10.560;2022-11-04T04:00:41;9.50;99.90
9193;DHT22;4631;49.296;10.560;2022-11-04T04:03:11;9.60;99.90
9193;DHT22;4631;49.296;10.560;2022-11-04T04:05:41;9.50;99.90
9193;DHT22;4631;49.296;10.560;2022-11-04T04:08:12;9.50;99.90
9193;DHT22;4631;49.296;10.560;2022-11-04T04:10:42;9.50;99.90
9193;DHT22;4631;49.296;10.560;2022-11-04T04:13:18;9.50;99.90
9193;DHT22;4631;49.296;10.560;2022-11-04T04:15:48;9.50;99.90
9193;DHT22;4631;49.296;10.560;2022-11-04T04:18:16;9.50;99.90
9193;DHT22;4631;49.296;10.560;2022-11-04T04:20:43;9.50;99.90
9193;DHT22;4631;49.296;10.560;2022-11-04T04:23:14;9.50;99.90
9193;DHT22;4631;49.296;10.560;2022-11-04T04:26:02;9.50;99.90
9193;DHT22;4631;49.296;10.560;2022-11-04T04:28:43;9.50;99.90
9193;DHT22;4631;49.296;10.560;2022-11-04T04:31:11;9.50;99.90
9193;DHT22;4631;49.296;10.560;2022-11-04T04:34:00;9.50;99.90
9193;DHT22;4631;49.296;10.560;2022-11-04T04:36:27;9.50;99.90
9193;DHT22;4631;49.296;10.560;2022-11-04T04:38:55;9.50;99.90
9193;DHT22;4631;49.296;10.560;2022-11-04T04:41:40;9.50;99.90
9193;DHT22;4631;49.296;10.560;2022-11-04T04:44:25;9.50;99.90
9193;DHT22;4631;49.296;10.560;2022-11-04T04:47:10;9.40;99.90
9193;DHT22;4631;49.296;10.560;2022-11-04T04:49:50;9.40;99.90
9193;DHT22;4631;49.296;10.560;2022-11-04T04:52:17;9.40;99.90
9193;DHT22;4631;49.296;10.560;2022-11-04T04:54:44;9.40;99.90
9193;DHT22;4631;49.296;10.560;2022-11-04T04:57:12;9.40;99.90
9193;DHT22;4631;49.296;10.560;2022-11-04T04:59:39;9.40;99.90
9193;DHT22;4631;49.296;10.560;2022-11-04T05:02:06;9.40;99.90
9193;DHT22;4631;49.296;10.560;2022-11-04T05:04:32;9.30;99.90
9193;DHT22;4631;49.296;10.560;2022-11-04T05:06:59;9.30;99.90
9193;DHT22;4631;49.296;10.560;2022-11-04T05:09:26;9.40;99.90
9193;DHT22;4631;49.296;10.560;2022-11-04T05:11:52;9.30;99.90
9193;DHT22;4631;49.296;10.560;2022-11-04T05:14:20;9.30;99.90
9193;DHT22;4631;49.296;10.560;2022-11-04T05:16:47;9.30;99.90
9193;DHT22;4631;49.296;10.560;2022-11-04T05:19:14;9.20;99.90
9193;DHT22;4631;49.296;10.560;2022-11-04T05:21:40;9.20;99.90
9193;DHT22;4631;49.296;10.560;2022-11-04T05:24:07;9.10;99.90
9193;DHT22;4631;49.296;10.560;2022-11-04T05:26:33;9.10;99.90
9193;DHT22;4631;49.296;10.560;2022-11-04T05:29:00;9.10;99.90
9193;DHT22;4631;49.296;10.560;2022-11-04T05:31:28;9.00;99.90
9193;DHT22;4631;49.296;10.560;2022-11-04T05:33:55;9.00;99.90
9193;DHT22;4631;49.296;10.560;2022-11-04T05:36:23;9.00;99.90
9193;DHT22;4631;49.296;10.560;2022-11-04T05:38:50;9.00;99.90
9193;DHT22;4631;49.296;10.560;2022-11-04T05:41:17;9.00;99.90
9193;DHT22;4631;49.296;10.560;2022-11-04T05:43:50;9.00;99.90
9193;DHT22;4631;49.296;10.560;2022-11-04T05:46:16;9.00;99.90
9193;DHT22;4631;49.296;10.560;2022-11-04T05:48:44;8.90;99.90
9193;DHT22;4631;49.296;10.560;2022-11-04T05:51:11;8.90;99.90
9193;DHT22;4631;49.296;10.560;2022-11-04T05:53:38;8.90;99.90
9193;DHT22;4631;49.296;10.560;2022-11-04T05:56:05;8.90;99.90
9193;DHT22;4631;49.296;10.560;2022-11-04T05:58:31;8.90;99.90
9193;DHT22;4631;49.296;10.560;2022-11-04T06:01:09;8.90;99.90
9193;DHT22;4631;49.296;10.560;2022-11-04T06:03:47;8.80;99.90
9193;DHT22;4631;49.296;10.560;2022-11-04T06:06:14;8.80;99.90
9193;DHT22;4631;49.296;10.560;2022-11-04T06:08:41;8.70;99.90
9193;DHT22;4631;49.296;10.560;2022-11-04T06:11:07;8.70;99.90
9193;DHT22;4631;49.296;10.560;2022-11-04T06:13:41;8.70;99.90
9193;DHT22;4631;49.296;10.560;2022-11-04T06:16:07;8.70;99.90
9193;DHT22;4631;49.296;10.560;2022-11-04T06:18:34;8.70;99.90
9193;DHT22;4631;49.296;10.560;2022-11-04T06:21:09;8.70;99.90
9193;DHT22;4631;49.296;10.560;2022-11-04T06:23:36;8.70;99.90
9193;DHT22;4631;49.296;10.560;2022-11-04T06:26:03;8.70;99.90
9193;DHT22;4631;49.296;10.560;2022-11-04T06:28:30;8.70;99.90
9193;DHT22;4631;49.296;10.560;2022-11-04T06:30:57;8.70;99.90
9193;DHT22;4631;49.296;10.560;2022-11-04T06:33:24;8.70;99.90
9193;DHT22;4631;49.296;10.560;2022-11-04T06:35:50;8.70;99.90
9193;DHT22;4631;49.296;10.560;2022-11-04T06:38:18;8.70;99.90
9193;DHT22;4631;49.296;10.560;2022-11-04T06:40:45;8.70;99.90
9193;DHT22;4631;49.296;10.560;2022-11-04T06:43:12;8.70;99.90
9193;DHT22;4631;49.296;10.560;2022-11-04T06:45:38;8.70;99.90
9193;DHT22;4631;49.296;10.560;2022-11-04T06:48:05;8.70;99.90
9193;DHT22;4631;49.296;10.560;2022-11-04T06:50:32;8.70;99.90
9193;DHT22;4631;49.296;10.560;2022-11-04T06:52:58;8.60;99.90
9193;DHT22;4631;49.296;10.560;2022-11-04T06:55:26;8.70;99.90
9193;DHT22;4631;49.296;10.560;2022-11-04T06:57:53;8.70;99.90
9193;DHT22;4631;49.296;10.560;2022-11-04T07:00:20;8.70;99.90
9193;DHT22;4631;49.296;10.560;2022-11-04T07:02:46;8.70;99.90
9193;DHT22;4631;49.296;10.560;2022-11-04T07:05:13;8.70;99.90
9193;DHT22;4631;49.296;10.560;2022-11-04T07:07:39;8.70;99.90
9193;DHT22;4631;49.296;10.560;2022-11-04T07:10:06;8.60;99.90
9193;DHT22;4631;49.296;10.560;2022-11-04T07:12:34;8.60;99.90
9193;DHT22;4631;49.296;10.560;2022-11-04T07:15:01;8.60;99.90
9193;DHT22;4631;49.296;10.560;2022-11-04T07:17:28;8.60;99.90
9193;DHT22;4631;49.296;10.560;2022-11-04T07:19:54;8.70;99.90
9193;DHT22;4631;49.296;10.560;2022-11-04T07:22:21;8.70;99.90
9193;DHT22;4631;49.296;10.560;2022-11-04T07:24:48;8.80;99.90
9193;DHT22;4631;49.296;10.560;2022-11-04T07:27:14;8.80;99.90
9193;DHT22;4631;49.296;10.560;2022-11-04T07:29:42;8.80;99.90
9193;DHT22;4631;49.296;10.560;2022-11-04T07:32:09;8.80;99.90
9193;DHT22;4631;49.296;10.560;2022-11-04T07:34:35;8.80;99.90
9193;DHT22;4631;49.296;10.560;2022-11-04T07:37:02;8.80;99.90
9193;DHT22;4631;49.296;10.560;2022-11-04T07:39:29;8.80;99.90
9193;DHT22;4631;49.296;10.560;2022-11-04T07:41:55;8.80;99.90
9193;DHT22;4631;49.296;10.560;2022-11-04T07:44:22;8.80;99.90
9193;DHT22;4631;49.296;10.560;2022-11-04T07:46:50;8.80;99.90
9193;DHT22;4631;49.296;10.560;2022-11-04T07:49:17;8.90;99.90
9193;DHT22;4631;49.296;10.560;2022-11-04T07:51:43;8.90;99.90
9193;DHT22;4631;49.296;10.560;2022-11-04T07:54:10;8.90;99.90
9193;DHT22;4631;49.296;10.560;2022-11-04T07:56:36;8.90;99.90
9193;DHT22;4631;49.296;10.560;2022-11-04T07:59:04;9.00;99.90
9193;DHT22;4631;49.296;10.560;2022-11-04T08:01:31;8.90;99.90
9193;DHT22;4631;49.296;10.560;2022-11-04T08:03:58;9.00;99.90
9193;DHT22;4631;49.296;10.560;2022-11-04T08:06:25;8.90;99.90
9193;DHT22;4631;49.296;10.560;2022-11-04T08:08:52;8.90;99.90
9193;DHT22;4631;49.296;10.560;2022-11-04T08:11:20;8.90;99.90
9193;DHT22;4631;49.296;10.560;2022-11-04T08:13:47;8.90;99.90
9193;DHT22;4631;49.296;10.560;2022-11-04T08:16:15;8.90;99.90
9193;DHT22;4631;49.296;10.560;2022-11-04T08:18:42;8.90;99.90
9193;DHT22;4631;49.296;10.560;2022-11-04T08:21:10;8.90;99.90
9193;DHT22;4631;49.296;10.560;2022-11-04T08:23:37;8.90;99.90
9193;DHT22;4631;49.296;10.560;2022-11-04T08:26:06;8.90;99.90
9193;DHT22;4631;49.296;10.560;2022-11-04T08:28:33;9.00;99.90
9193;DHT22;4631;49.296;10.560;2022-11-04T08:31:00;9.00;99.90
9193;DHT22;4631;49.296;10.560;2022-11-04T08:33:27;9.00;99.90
9193;DHT22;4631;49.296;10.560;2022-11-04T08:35:57;9.00;99.90
9193;DHT22;4631;49.296;10.560;2022-11-04T08:38:26;9.10;99.90
9193;DHT22;4631;49.296;10.560;2022-11-04T08:40:55;9.10;99.90
9193;DHT22;4631;49.296;10.560;2022-11-04T08:43:21;9.10;99.90
9193;DHT22;4631;49.296;10.560;2022-11-04T08:45:48;9.10;99.90
9193;DHT22;4631;49.296;10.560;2022-11-04T08:48:15;9.10;99.90
9193;DHT22;4631;49.296;10.560;2022-11-04T08:50:41;9.10;99.90
9193;DHT22;4631;49.296;10.560;2022-11-04T08:53:24;9.10;99.90
9193;DHT22;4631;49.296;10.560;2022-11-04T08:55:52;9.20;99.90
9193;DHT22;4631;49.296;10.560;2022-11-04T08:58:19;9.20;99.90
9193;DHT22;4631;49.296;10.560;2022-11-04T09:00:46;9.20;99.90
9193;DHT22;4631;49.296;10.560;2022-11-04T09:03:13;9.30;99.90
9193;DHT22;4631;49.296;10.560;2022-11-04T09:05:40;9.30;99.90
9193;DHT22;4631;49.296;10.560;2022-11-04T09:08:09;9.30;99.90
9193;DHT22;4631;49.296;10.560;2022-11-04T09:10:39;9.30;99.90
9193;DHT22;4631;49.296;10.560;2022-11-04T09:13:07;9.30;99.90
9193;DHT22;4631;49.296;10.560;2022-11-04T09:15:34;9.30;99.90
9193;DHT22;4631;49.296;10.560;2022-11-04T09:18:01;9.30;99.90
9193;DHT22;4631;49.296;10.560;2022-11-04T09:20:28;9.40;99.90
9193;DHT22;4631;49.296;10.560;2022-11-04T09:22:55;9.40;99.90
9193;DHT22;4631;49.296;10.560;2022-11-04T09:25:22;9.40;99.90
9193;DHT22;4631;49.296;10.560;2022-11-04T09:27:49;9.40;99.90
9193;DHT22;4631;49.296;10.560;2022-11-04T09:30:17;9.40;99.90
9193;DHT22;4631;49.296;10.560;2022-11-04T09:32:43;9.40;99.90
9193;DHT22;4631;49.296;10.560;2022-11-04T09:35:10;9.50;99.90
9193;DHT22;4631;49.296;10.560;2022-11-04T09:37:37;9.50;99.90
9193;DHT22;4631;49.296;10.560;2022-11-04T09:40:04;9.50;99.90
9193;DHT22;4631;49.296;10.560;2022-11-04T09:42:34;9.60;99.90
9193;DHT22;4631;49.296;10.560;2022-11-04T09:45:03;9.60;99.90
9193;DHT22;4631;49.296;10.560;2022-11-04T09:47:32;9.60;99.90
9193;DHT22;4631;49.296;10.560;2022-11-04T09:49:59;9.60;99.90
9193;DHT22;4631;49.296;10.560;2022-11-04T09:52:27;9.60;99.90
9193;DHT22;4631;49.296;10.560;2022-11-04T09:54:55;9.60;99.90
9193;DHT22;4631;49.296;10.560;2022-11-04T09:57:24;9.60;99.90
9193;DHT22;4631;49.296;10.560;2022-11-04T09:59:51;9.60;99.90
9193;DHT22;4631;49.296;10.560;2022-11-04T10:02:22;9.60;99.90
9193;DHT22;4631;49.296;10.560;2022-11-04T10:04:54;9.60;99.90
9193;DHT22;4631;49.296;10.560;2022-11-04T10:07:31;9.60;99.90
9193;DHT22;4631;49.296;10.560;2022-11-04T10:10:05;9.60;99.90
9193;DHT22;4631;49.296;10.560;2022-11-04T10:12:50;9.60;99.90
9193;DHT22;4631;49.296;10.560;2022-11-04T10:15:26;9.60;99.90
9193;DHT22;4631;49.296;10.560;2022-11-04T10:17:59;9.60;99.90
9193;DHT22;4631;49.296;10.560;2022-11-04T10:20:33;9.70;99.90
9193;DHT22;4631;49.296;10.560;2022-11-04T10:23:01;9.70;99.90
9193;DHT22;4631;49.296;10.560;2022-11-04T10:25:33;9.80;99.90
9193;DHT22;4631;49.296;10.560;2022-11-04T10:28:02;9.80;99.90
9193;DHT22;4631;49.296;10.560;2022-11-04T10:30:29;9.80;99.90
9193;DHT22;4631;49.296;10.560;2022-11-04T10:33:00;9.80;99.90
9193;DHT22;4631;49.296;10.560;2022-11-04T10:35:30;9.80;99.90
9193;DHT22;4631;49.296;10.560;2022-11-04T10:38:00;9.80;99.90
9193;DHT22;4631;49.296;10.560;2022-11-04T10:40:35;9.90;99.90
9193;DHT22;4631;49.296;10.560;2022-11-04T10:43:03;9.90;99.90
9193;DHT22;4631;49.296;10.560;2022-11-04T10:45:33;9.90;99.90
9193;DHT22;4631;49.296;10.560;2022-11-04T10:48:02;10.00;99.90
9193;DHT22;4631;49.296;10.560;2022-11-04T10:50:33;9.90;99.90
9193;DHT22;4631;49.296;10.560;2022-11-04T10:53:09;9.90;99.90
9193;DHT22;4631;49.296;10.560;2022-11-04T10:55:38;9.90;99.90
9193;DHT22;4631;49.296;10.560;2022-11-04T10:58:08;9.90;99.90
9193;DHT22;4631;49.296;10.560;2022-11-04T11:00:38;9.90;99.90
9193;DHT22;4631;49.296;10.560;2022-11-04T11:03:21;10.00;99.90
9193;DHT22;4631;49.296;10.560;2022-11-04T11:05:48;10.00;99.90
9193;DHT22;4631;49.296;10.560;2022-11-04T11:08:26;10.10;99.90
9193;DHT22;4631;49.296;10.560;2022-11-04T11:10:53;10.10;99.90
9193;DHT22;4631;49.296;10.560;2022-11-04T11:13:24;10.20;99.90
9193;DHT22;4631;49.296;10.560;2022-11-04T11:16:02;10.20;99.90
9193;DHT22;4631;49.296;10.560;2022-11-04T11:18:30;10.20;99.90
9193;DHT22;4631;49.296;10.560;2022-11-04T11:21:04;10.30;99.90
9193;DHT22;4631;49.296;10.560;2022-11-04T11:23:37;10.30;99.90
9193;DHT22;4631;49.296;10.560;2022-11-04T11:26:05;10.40;99.90
9193;DHT22;4631;49.296;10.560;2022-11-04T11:28:32;10.40;99.90
9193;DHT22;4631;49.296;10.560;2022-11-04T11:31:04;10.50;99.90
9193;DHT22;4631;49.296;10.560;2022-11-04T11:33:39;10.50;99.90
9193;DHT22;4631;49.296;10.560;2022-11-04T11:36:07;10.50;99.90
9193;DHT22;4631;49.296;10.560;2022-11-04T11:38:38;10.50;99.90
9193;DHT22;4631;49.296;10.560;2022-11-04T11:41:16;10.60;99.90
9193;DHT22;4631;49.296;10.560;2022-11-04T11:43:49;10.60;99.90
9193;DHT22;4631;49.296;10.560;2022-11-04T11:46:19;10.60;99.90
9193;DHT22;4631;49.296;10.560;2022-11-04T11:48:49;10.70;99.90
9193;DHT22;4631;49.296;10.560;2022-11-04T11:51:21;10.70;99.90
9193;DHT22;4631;49.296;10.560;2022-11-04T11:53:59;10.70;99.90
9193;DHT22;4631;49.296;10.560;2022-11-04T11:56:28;10.70;99.90
9193;DHT22;4631;49.296;10.560;2022-11-04T11:58:56;10.70;99.90
9193;DHT22;4631;49.296;10.560;2022-11-04T12:01:33;10.70;99.90
9193;DHT22;4631;49.296;10.560;2022-11-04T12:04:02;10.80;99.90
9193;DHT22;4631;49.296;10.560;2022-11-04T12:06:32;10.90;99.90
9193;DHT22;4631;49.296;10.560;2022-11-04T12:09:14;10.90;99.90
9193;DHT22;4631;49.296;10.560;2022-11-04T12:11:45;11.00;99.90
9193;DHT22;4631;49.296;10.560;2022-11-04T12:14:14;11.00;99.90
9193;DHT22;4631;49.296;10.560;2022-11-04T12:16:44;11.10;99.90
9193;DHT22;4631;49.296;10.560;2022-11-04T12:19:21;11.20;99.90
9193;DHT22;4631;49.296;10.560;2022-11-04T12:21:55;11.30;99.90
9193;DHT22;4631;49.296;10.560;2022-11-04T12:24:27;11.20;99.90
9193;DHT22;4631;49.296;10.560;2022-11-04T12:26:58;11.30;99.90
9193;DHT22;4631;49.296;10.560;2022-11-04T12:29:33;11.40;99.90
9193;DHT22;4631;49.296;10.560;2022-11-04T12:32:03;11.30;99.90
9193;DHT22;4631;49.296;10.560;2022-11-04T12:34:39;11.40;99.90
9193;DHT22;4631;49.296;10.560;2022-11-04T12:37:12;11.40;99.90
9193;DHT22;4631;49.296;10.560;2022-11-04T12:39:51;11.30;99.90
9193;DHT22;4631;49.296;10.560;2022-11-04T12:42:20;11.40;99.90
9193;DHT22;4631;49.296;10.560;2022-11-04T12:44:52;11.50;99.90
9193;DHT22;4631;49.296;10.560;2022-11-04T12:47:27;11.40;99.90
9193;DHT22;4631;49.296;10.560;2022-11-04T12:52:49;11.50;99.90
9193;DHT22;4631;49.296;10.560;2022-11-04T12:55:25;11.50;99.90
9193;DHT22;4631;49.296;10.560;2022-11-04T12:57:54;11.50;99.90
9193;DHT22;4631;49.296;10.560;2022-11-04T13:00:28;11.50;99.90
9193;DHT22;4631;49.296;10.560;2022-11-04T13:02:55;11.50;99.90
9193;DHT22;4631;49.296;10.560;2022-11-04T13:05:31;11.40;99.90
9193;DHT22;4631;49.296;10.560;2022-11-04T13:08:02;11.40;99.90
9193;DHT22;4631;49.296;10.560;2022-11-04T13:10:33;11.40;99.90
9193;DHT22;4631;49.296;10.560;2022-11-04T13:13:04;11.30;99.90
9193;DHT22;4631;49.296;10.560;2022-11-04T13:15:32;11.30;99.90
9193;DHT22;4631;49.296;10.560;2022-11-04T13:18:03;11.30;99.90
9193;DHT22;4631;49.296;10.560;2022-11-04T13:20:32;11.30;99.90
9193;DHT22;4631;49.296;10.560;2022-11-04T13:23:01;11.30;99.90
9193;DHT22;4631;49.296;10.560;2022-11-04T13:25:30;11.30;99.90
9193;DHT22;4631;49.296;10.560;2022-11-04T13:27:59;11.30;99.90
9193;DHT22;4631;49.296;10.560;2022-11-04T13:30:29;11.30;99.90
9193;DHT22;4631;49.296;10.560;2022-11-04T13:32:57;11.30;99.90
9193;DHT22;4631;49.296;10.560;2022-11-04T13:35:28;11.30;99.90
9193;DHT22;4631;49.296;10.560;2022-11-04T13:37:58;11.30;99.90
9193;DHT22;4631;49.296;10.560;2022-11-04T13:40:28;11.30;99.90
9193;DHT22;4631;49.296;10.560;2022-11-04T13:43:06;11.30;99.90
9193;DHT22;4631;49.296;10.560;2022-11-04T13:45:54;11.20;99.90
9193;DHT22;4631;49.296;10.560;2022-11-04T13:48:22;11.30;99.90
9193;DHT22;4631;49.296;10.560;2022-11-04T13:50:54;11.30;99.90
9193;DHT22;4631;49.296;10.560;2022-11-04T13:53:26;11.30;99.90
9193;DHT22;4631;49.296;10.560;2022-11-04T13:56:05;11.40;99.90
9193;DHT22;4631;49.296;10.560;2022-11-04T13:58:34;11.40;99.90
9193;DHT22;4631;49.296;10.560;2022-11-04T14:01:11;11.30;99.90
9193;DHT22;4631;49.296;10.560;2022-11-04T14:03:38;11.40;99.90
9193;DHT22;4631;49.296;10.560;2022-11-04T14:06:06;11.30;99.90
9193;DHT22;4631;49.296;10.560;2022-11-04T14:08:33;11.40;99.90
9193;DHT22;4631;49.296;10.560;2022-11-04T14:11:10;11.40;99.90
9193;DHT22;4631;49.296;10.560;2022-11-04T14:13:48;11.40;99.90
9193;DHT22;4631;49.296;10.560;2022-11-04T14:16:40;11.30;99.90
9193;DHT22;4631;49.296;10.560;2022-11-04T14:22:03;11.30;99.90
9193;DHT22;4631;49.296;10.560;2022-11-04T14:24:30;11.20;99.90
9193;DHT22;4631;49.296;10.560;2022-11-04T14:26:57;11.20;99.90
9193;DHT22;4631;49.296;10.560;2022-11-04T14:29:24;11.20;99.90
9193;DHT22;4631;49.296;10.560;2022-11-04T14:31:53;11.10;99.90
9193;DHT22;4631;49.296;10.560;2022-11-04T14:34:22;11.10;99.90
9193;DHT22;4631;49.296;10.560;2022-11-04T14:36:53;11.10;99.90
9193;DHT22;4631;49.296;10.560;2022-11-04T14:39:21;11.10;99.90
9193;DHT22;4631;49.296;10.560;2022-11-04T14:41:51;11.10;99.90
9193;DHT22;4631;49.296;10.560;2022-11-04T14:44:18;11.10;99.90
9193;DHT22;4631;49.296;10.560;2022-11-04T14:46:47;11.10;99.90
9193;DHT22;4631;49.296;10.560;2022-11-04T14:49:24;11.10;99.90
9193;DHT22;4631;49.296;10.560;2022-11-04T14:51:53;11.10;99.90
9193;DHT22;4631;49.296;10.560;2022-11-04T14:54:21;11.00;99.90
9193;DHT22;4631;49.296;10.560;2022-11-04T14:56:49;11.00;99.90
9193;DHT22;4631;49.296;10.560;2022-11-04T14:59:19;11.00;99.90
9193;DHT22;4631;49.296;10.560;2022-11-04T15:01:46;11.10;99.90
9193;DHT22;4631;49.296;10.560;2022-11-04T15:04:17;11.00;99.90
9193;DHT22;4631;49.296;10.560;2022-11-04T15:06:53;11.10;99.90
9193;DHT22;4631;49.296;10.560;2022-11-04T15:09:26;11.10;99.90
9193;DHT22;4631;49.296;10.560;2022-11-04T15:11:57;11.00;99.90
9193;DHT22;4631;49.296;10.560;2022-11-04T15:14:58;11.00;99.90
9193;DHT22;4631;49.296;10.560;2022-11-04T15:17:25;11.00;99.90
9193;DHT22;4631;49.296;10.560;2022-11-04T15:19:54;11.00;99.90
9193;DHT22;4631;49.296;10.560;2022-11-04T15:22:23;11.00;99.90
9193;DHT22;4631;49.296;10.560;2022-11-04T15:24:49;11.00;99.90
9193;DHT22;4631;49.296;10.560;2022-11-04T15:27:17;10.90;99.90
9193;DHT22;4631;49.296;10.560;2022-11-04T15:29:51;10.90;99.90
9193;DHT22;4631;49.296;10.560;2022-11-04T15:32:18;10.80;99.90
9193;DHT22;4631;49.296;10.560;2022-11-04T15:34:45;10.80;99.90
9193;DHT22;4631;49.296;10.560;2022-11-04T15:37:12;10.70;99.90
9193;DHT22;4631;49.296;10.560;2022-11-04T15:39:40;10.60;99.90
9193;DHT22;4631;49.296;10.560;2022-11-04T15:42:10;10.60;99.90
9193;DHT22;4631;49.296;10.560;2022-11-04T15:44:55;10.50;99.90
9193;DHT22;4631;49.296;10.560;2022-11-04T15:47:23;10.40;99.90
9193;DHT22;4631;49.296;10.560;2022-11-04T15:49:50;10.40;99.90
9193;DHT22;4631;49.296;10.560;2022-11-04T15:52:18;10.40;99.90
9193;DHT22;4631;49.296;10.560;2022-11-04T15:54:47;10.40;99.90
9193;DHT22;4631;49.296;10.560;2022-11-04T15:57:15;10.30;99.90
9193;DHT22;4631;49.296;10.560;2022-11-04T15:59:44;10.30;99.90
9193;DHT22;4631;49.296;10.560;2022-11-04T16:02:26;10.30;99.90
9193;DHT22;4631;49.296;10.560;2022-11-04T16:05:03;10.30;99.90
9193;DHT22;4631;49.296;10.560;2022-11-04T16:07:33;10.30;99.90
9193;DHT22;4631;49.296;10.560;2022-11-04T16:10:02;10.20;99.90
9193;DHT22;4631;49.296;10.560;2022-11-04T16:12:33;10.20;99.90
9193;DHT22;4631;49.296;10.560;2022-11-04T16:15:00;10.20;99.90
9193;DHT22;4631;49.296;10.560;2022-11-04T16:17:27;10.20;99.90
9193;DHT22;4631;49.296;10.560;2022-11-04T16:19:57;10.10;99.90
9193;DHT22;4631;49.296;10.560;2022-11-04T16:22:26;10.20;99.90
9193;DHT22;4631;49.296;10.560;2022-11-04T16:24:54;10.10;99.90
9193;DHT22;4631;49.296;10.560;2022-11-04T16:27:22;10.10;99.90